sensor_id;sensor_type;location;lat;lon;timestamp;P1;durP1;ratioP1;P2;durP2;ratioP2
25349;SDS011;13302;48.796;11.978;2023-02-07T00:02:00;7.80;;;7.10;;
25349;SDS011;13302;48.796;11.978;2023-02-07T00:04:47;7.97;;;7.17;;
25349;SDS011;13302;48.796;11.978;2023-02-07T00:07:34;7.53;;;6.83;;
25349;SDS011;13302;48.796;11.978;2023-02-07T00:10:21;8.70;;;7.60;;
25349;SDS011;13302;48.796;11.978;2023-02-07T00:13:08;8.10;;;7.40;;
25349;SDS011;13302;48.796;11.978;2023-02-07T00:15:55;7.27;;;6.60;;
25349;SDS011;13302;48.796;11.978;2023-02-07T00:18:42;7.83;;;7.03;;
25349;SDS011;13302;48.796;11.978;2023-02-07T00:21:29;7.67;;;6.97;;
25349;SDS011;13302;48.796;11.978;2023-02-07T00:24:16;7.87;;;7.10;;
25349;SDS011;13302;48.796;11.978;2023-02-07T00:27:03;7.47;;;6.83;;
25349;SDS011;13302;48.796;11.978;2023-02-07T00:29:50;7.70;;;6.90;;
25349;SDS011;13302;48.796;11.978;2023-02-07T00:32:37;7.53;;;6.83;;
25349;SDS011;13302;48.796;11.978;2023-02-07T00:35:24;8.37;;;7.57;;
25349;SDS011;13302;48.796;11.978;2023-02-07T00:38:11;7.87;;;7.17;;
25349;SDS011;13302;48.796;11.978;2023-02-07T00:40:58;8.73;;;7.53;;
25349;SDS011;13302;48.796;11.978;2023-02-07T00:43:50;8.03;;;7.33;;
25349;SDS011;13302;48.796;11.978;2023-02-07T00:46:37;8.60;;;7.80;;
25349;SDS011;13302;48.796;11.978;2023-02-07T00:49:25;8.37;;;7.60;;
25349;SDS011;13302;48.796;11.978;2023-02-07T00:52:12;9.40;;;8.60;;
25349;SDS011;13302;48.796;11.978;2023-02-07T00:54:59;9.00;;;8.20;;
25349;SDS011;13302;48.796;11.978;2023-02-07T00:57:46;8.70;;;7.90;;
25349;SDS011;13302;48.796;11.978;2023-02-07T01:00:33;9.87;;;8.97;;
25349;SDS011;13302;48.796;11.978;2023-02-07T01:03:22;9.30;;;8.40;;
25349;SDS011;13302;48.796;11.978;2023-02-07T01:06:09;9.80;;;8.80;;
25349;SDS011;13302;48.796;11.978;2023-02-07T01:08:57;9.83;;;8.93;;
25349;SDS011;13302;48.796;11.978;2023-02-07T01:11:46;8.77;;;7.97;;
25349;SDS011;13302;48.796;11.978;2023-02-07T01:14:33;10.23;;;9.23;;
25349;SDS011;13302;48.796;11.978;2023-02-07T01:17:20;9.07;;;8.17;;
25349;SDS011;13302;48.796;11.978;2023-02-07T01:20:07;9.43;;;8.53;;
25349;SDS011;13302;48.796;11.978;2023-02-07T01:22:55;10.50;;;9.50;;
25349;SDS011;13302;48.796;11.978;2023-02-07T01:25:42;10.40;;;9.40;;
25349;SDS011;13302;48.796;11.978;2023-02-07T01:28:32;10.27;;;9.27;;
25349;SDS011;13302;48.796;11.978;2023-02-07T01:31:19;9.73;;;8.77;;
25349;SDS011;13302;48.796;11.978;2023-02-07T01:34:09;10.77;;;9.67;;
25349;SDS011;13302;48.796;11.978;2023-02-07T01:36:57;9.43;;;8.63;;
25349;SDS011;13302;48.796;11.978;2023-02-07T01:39:45;10.33;;;9.27;;
25349;SDS011;13302;48.796;11.978;2023-02-07T01:42:32;10.07;;;9.17;;
25349;SDS011;13302;48.796;11.978;2023-02-07T01:48:19;9.87;;;8.87;;
25349;SDS011;13302;48.796;11.978;2023-02-07T01:51:10;9.20;;;8.30;;
25349;SDS011;13302;48.796;11.978;2023-02-07T01:53:58;9.17;;;8.30;;
25349;SDS011;13302;48.796;11.978;2023-02-07T01:56:52;9.40;;;8.50;;
25349;SDS011;13302;48.796;11.978;2023-02-07T01:59:42;9.60;;;8.00;;
25349;SDS011;13302;48.796;11.978;2023-02-07T02:02:32;9.43;;;8.53;;
25349;SDS011;13302;48.796;11.978;2023-02-07T02:05:22;8.60;;;7.80;;
25349;SDS011;13302;48.796;11.978;2023-02-07T02:08:09;8.80;;;7.93;;
25349;SDS011;13302;48.796;11.978;2023-02-07T02:11:00;9.33;;;8.43;;
25349;SDS011;13302;48.796;11.978;2023-02-07T02:16:47;9.27;;;7.47;;
25349;SDS011;13302;48.796;11.978;2023-02-07T02:26:23;7.23;;;6.60;;
25349;SDS011;13302;48.796;11.978;2023-02-07T02:29:41;7.13;;;6.43;;
25349;SDS011;13302;48.796;11.978;2023-02-07T02:35:41;6.80;;;6.20;;
25349;SDS011;13302;48.796;11.978;2023-02-07T02:41:29;7.10;;;6.40;;
25349;SDS011;13302;48.796;11.978;2023-02-07T02:44:23;7.33;;;6.73;;
25349;SDS011;13302;48.796;11.978;2023-02-07T02:47:19;7.27;;;6.57;;
25349;SDS011;13302;48.796;11.978;2023-02-07T02:50:10;8.00;;;7.23;;
25349;SDS011;13302;48.796;11.978;2023-02-07T02:52:59;7.87;;;7.03;;
25349;SDS011;13302;48.796;11.978;2023-02-07T03:05:20;8.20;;;7.10;;
25349;SDS011;13302;48.796;11.978;2023-02-07T03:11:38;8.03;;;7.13;;
25349;SDS011;13302;48.796;11.978;2023-02-07T03:14:35;7.57;;;6.87;;
25349;SDS011;13302;48.796;11.978;2023-02-07T03:17:43;8.60;;;7.80;;
25349;SDS011;13302;48.796;11.978;2023-02-07T03:20:42;7.60;;;6.90;;
25349;SDS011;13302;48.796;11.978;2023-02-07T03:23:30;7.80;;;7.07;;
25349;SDS011;13302;48.796;11.978;2023-02-07T03:26:19;7.30;;;6.60;;
25349;SDS011;13302;48.796;11.978;2023-02-07T03:29:12;6.60;;;6.00;;
25349;SDS011;13302;48.796;11.978;2023-02-07T03:32:03;5.80;;;5.33;;
25349;SDS011;13302;48.796;11.978;2023-02-07T03:34:53;6.23;;;5.50;;
25349;SDS011;13302;48.796;11.978;2023-02-07T03:38:06;6.20;;;5.43;;
25349;SDS011;13302;48.796;11.978;2023-02-07T03:40:55;6.23;;;5.73;;
25349;SDS011;13302;48.796;11.978;2023-02-07T03:43:47;6.63;;;6.03;;
25349;SDS011;13302;48.796;11.978;2023-02-07T03:46:35;5.80;;;5.30;;
25349;SDS011;13302;48.796;11.978;2023-02-07T03:49:25;6.87;;;5.50;;
25349;SDS011;13302;48.796;11.978;2023-02-07T03:52:13;5.60;;;5.03;;
25349;SDS011;13302;48.796;11.978;2023-02-07T03:54:59;6.17;;;5.60;;
25349;SDS011;13302;48.796;11.978;2023-02-07T03:57:46;5.90;;;5.30;;
25349;SDS011;13302;48.796;11.978;2023-02-07T04:00:34;5.80;;;5.20;;
25349;SDS011;13302;48.796;11.978;2023-02-07T04:03:21;5.93;;;5.40;;
25349;SDS011;13302;48.796;11.978;2023-02-07T04:06:08;6.20;;;5.60;;
25349;SDS011;13302;48.796;11.978;2023-02-07T04:08:55;5.93;;;5.33;;
25349;SDS011;13302;48.796;11.978;2023-02-07T04:11:42;6.07;;;5.53;;
25349;SDS011;13302;48.796;11.978;2023-02-07T04:14:29;5.33;;;4.87;;
25349;SDS011;13302;48.796;11.978;2023-02-07T04:17:16;5.93;;;5.43;;
25349;SDS011;13302;48.796;11.978;2023-02-07T04:20:04;6.60;;;6.00;;
25349;SDS011;13302;48.796;11.978;2023-02-07T04:22:51;6.00;;;5.50;;
25349;SDS011;13302;48.796;11.978;2023-02-07T04:25:38;5.93;;;5.43;;
25349;SDS011;13302;48.796;11.978;2023-02-07T04:28:26;7.17;;;5.97;;
25349;SDS011;13302;48.796;11.978;2023-02-07T04:31:13;7.00;;;5.90;;
25349;SDS011;13302;48.796;11.978;2023-02-07T04:34:01;6.23;;;5.63;;
25349;SDS011;13302;48.796;11.978;2023-02-07T04:36:48;6.80;;;6.13;;
25349;SDS011;13302;48.796;11.978;2023-02-07T04:39:35;6.20;;;5.60;;
25349;SDS011;13302;48.796;11.978;2023-02-07T04:42:22;6.50;;;5.87;;
25349;SDS011;13302;48.796;11.978;2023-02-07T04:45:09;6.37;;;5.77;;
25349;SDS011;13302;48.796;11.978;2023-02-07T04:47:56;6.37;;;5.73;;
25349;SDS011;13302;48.796;11.978;2023-02-07T04:50:43;7.47;;;5.97;;
25349;SDS011;13302;48.796;11.978;2023-02-07T04:53:30;6.17;;;5.53;;
25349;SDS011;13302;48.796;11.978;2023-02-07T04:56:17;7.87;;;6.77;;
25349;SDS011;13302;48.796;11.978;2023-02-07T04:59:04;10.13;;;7.80;;
25349;SDS011;13302;48.796;11.978;2023-02-07T05:01:51;8.37;;;7.43;;
25349;SDS011;13302;48.796;11.978;2023-02-07T05:04:37;7.57;;;6.57;;
25349;SDS011;13302;48.796;11.978;2023-02-07T05:07:25;7.17;;;6.47;;
25349;SDS011;13302;48.796;11.978;2023-02-07T05:10:11;7.97;;;7.17;;
25349;SDS011;13302;48.796;11.978;2023-02-07T05:12:58;11.07;;;9.90;;
25349;SDS011;13302;48.796;11.978;2023-02-07T05:15:45;12.00;;;10.47;;
25349;SDS011;13302;48.796;11.978;2023-02-07T05:18:32;9.40;;;8.50;;
25349;SDS011;13302;48.796;11.978;2023-02-07T05:21:19;7.80;;;7.03;;
25349;SDS011;13302;48.796;11.978;2023-02-07T05:24:06;7.03;;;6.43;;
25349;SDS011;13302;48.796;11.978;2023-02-07T05:26:53;7.33;;;6.70;;
25349;SDS011;13302;48.796;11.978;2023-02-07T05:29:40;7.87;;;6.43;;
25349;SDS011;13302;48.796;11.978;2023-02-07T05:32:27;7.00;;;6.33;;
25349;SDS011;13302;48.796;11.978;2023-02-07T05:35:34;7.20;;;6.60;;
25349;SDS011;13302;48.796;11.978;2023-02-07T05:38:23;6.60;;;5.93;;
25349;SDS011;13302;48.796;11.978;2023-02-07T05:41:10;6.87;;;6.17;;
25349;SDS011;13302;48.796;11.978;2023-02-07T05:43:57;6.80;;;6.10;;
25349;SDS011;13302;48.796;11.978;2023-02-07T05:46:44;7.57;;;6.87;;
25349;SDS011;13302;48.796;11.978;2023-02-07T05:49:31;7.07;;;6.47;;
25349;SDS011;13302;48.796;11.978;2023-02-07T05:52:18;7.43;;;6.60;;
25349;SDS011;13302;48.796;11.978;2023-02-07T05:55:05;8.00;;;7.20;;
25349;SDS011;13302;48.796;11.978;2023-02-07T05:57:53;7.50;;;6.80;;
25349;SDS011;13302;48.796;11.978;2023-02-07T06:00:40;7.77;;;7.07;;
25349;SDS011;13302;48.796;11.978;2023-02-07T06:03:27;9.13;;;7.47;;
25349;SDS011;13302;48.796;11.978;2023-02-07T06:06:14;6.93;;;6.27;;
25349;SDS011;13302;48.796;11.978;2023-02-07T06:09:01;7.20;;;6.50;;
25349;SDS011;13302;48.796;11.978;2023-02-07T06:11:47;7.93;;;7.10;;
25349;SDS011;13302;48.796;11.978;2023-02-07T06:14:35;7.80;;;7.10;;
25349;SDS011;13302;48.796;11.978;2023-02-07T06:17:21;7.50;;;6.70;;
25349;SDS011;13302;48.796;11.978;2023-02-07T06:20:09;9.13;;;7.67;;
25349;SDS011;13302;48.796;11.978;2023-02-07T06:22:56;7.57;;;6.87;;
25349;SDS011;13302;48.796;11.978;2023-02-07T06:25:43;7.83;;;7.13;;
25349;SDS011;13302;48.796;11.978;2023-02-07T06:28:30;8.00;;;7.20;;
25349;SDS011;13302;48.796;11.978;2023-02-07T06:31:17;7.80;;;7.10;;
25349;SDS011;13302;48.796;11.978;2023-02-07T06:34:04;8.70;;;7.73;;
25349;SDS011;13302;48.796;11.978;2023-02-07T06:36:51;8.20;;;7.40;;
25349;SDS011;13302;48.796;11.978;2023-02-07T06:39:38;8.63;;;7.80;;
25349;SDS011;13302;48.796;11.978;2023-02-07T06:42:25;7.73;;;6.97;;
25349;SDS011;13302;48.796;11.978;2023-02-07T06:45:12;8.07;;;7.30;;
25349;SDS011;13302;48.796;11.978;2023-02-07T06:47:59;8.07;;;7.27;;
25349;SDS011;13302;48.796;11.978;2023-02-07T06:50:48;8.10;;;7.20;;
25349;SDS011;13302;48.796;11.978;2023-02-07T06:53:37;8.57;;;7.70;;
25349;SDS011;13302;48.796;11.978;2023-02-07T06:56:24;8.30;;;7.50;;
25349;SDS011;13302;48.796;11.978;2023-02-07T06:59:11;9.13;;;7.67;;
25349;SDS011;13302;48.796;11.978;2023-02-07T07:01:58;8.23;;;7.43;;
25349;SDS011;13302;48.796;11.978;2023-02-07T07:04:46;7.63;;;6.83;;
25349;SDS011;13302;48.796;11.978;2023-02-07T07:07:33;8.07;;;7.27;;
25349;SDS011;13302;48.796;11.978;2023-02-07T07:10:20;7.40;;;6.70;;
25349;SDS011;13302;48.796;11.978;2023-02-07T07:13:07;7.57;;;6.97;;
25349;SDS011;13302;48.796;11.978;2023-02-07T07:15:54;8.17;;;7.37;;
25349;SDS011;13302;48.796;11.978;2023-02-07T07:18:41;8.33;;;7.53;;
25349;SDS011;13302;48.796;11.978;2023-02-07T07:21:28;7.60;;;6.90;;
25349;SDS011;13302;48.796;11.978;2023-02-07T07:24:15;8.80;;;7.73;;
25349;SDS011;13302;48.796;11.978;2023-02-07T07:27:02;7.90;;;7.10;;
25349;SDS011;13302;48.796;11.978;2023-02-07T07:29:49;7.47;;;6.77;;
25349;SDS011;13302;48.796;11.978;2023-02-07T07:32:37;9.27;;;7.57;;
25349;SDS011;13302;48.796;11.978;2023-02-07T07:35:25;7.90;;;7.20;;
25349;SDS011;13302;48.796;11.978;2023-02-07T07:38:12;8.57;;;7.57;;
25349;SDS011;13302;48.796;11.978;2023-02-07T07:40:59;8.37;;;7.57;;
25349;SDS011;13302;48.796;11.978;2023-02-07T07:43:46;8.13;;;7.40;;
25349;SDS011;13302;48.796;11.978;2023-02-07T07:46:33;8.70;;;7.77;;
25349;SDS011;13302;48.796;11.978;2023-02-07T07:49:20;11.30;;;7.47;;
25349;SDS011;13302;48.796;11.978;2023-02-07T07:52:07;8.63;;;7.73;;
25349;SDS011;13302;48.796;11.978;2023-02-07T07:54:54;8.67;;;7.77;;
25349;SDS011;13302;48.796;11.978;2023-02-07T07:57:41;8.50;;;7.37;;
25349;SDS011;13302;48.796;11.978;2023-02-07T08:00:28;9.00;;;7.70;;
25349;SDS011;13302;48.796;11.978;2023-02-07T08:03:15;8.13;;;7.33;;
25349;SDS011;13302;48.796;11.978;2023-02-07T08:06:04;8.27;;;7.43;;
25349;SDS011;13302;48.796;11.978;2023-02-07T08:08:52;8.53;;;7.63;;
25349;SDS011;13302;48.796;11.978;2023-02-07T08:11:39;7.80;;;6.70;;
25349;SDS011;13302;48.796;11.978;2023-02-07T08:14:26;9.20;;;7.53;;
25349;SDS011;13302;48.796;11.978;2023-02-07T08:17:12;8.30;;;7.43;;
25349;SDS011;13302;48.796;11.978;2023-02-07T08:19:59;8.17;;;7.47;;
25349;SDS011;13302;48.796;11.978;2023-02-07T08:22:46;8.13;;;7.33;;
25349;SDS011;13302;48.796;11.978;2023-02-07T08:25:33;9.00;;;8.10;;
25349;SDS011;13302;48.796;11.978;2023-02-07T08:28:21;8.60;;;7.80;;
25349;SDS011;13302;48.796;11.978;2023-02-07T08:31:08;8.67;;;7.57;;
25349;SDS011;13302;48.796;11.978;2023-02-07T08:33:55;8.43;;;7.70;;
25349;SDS011;13302;48.796;11.978;2023-02-07T08:36:42;10.00;;;8.00;;
25349;SDS011;13302;48.796;11.978;2023-02-07T08:39:29;8.33;;;7.40;;
25349;SDS011;13302;48.796;11.978;2023-02-07T08:42:20;9.10;;;8.17;;
25349;SDS011;13302;48.796;11.978;2023-02-07T08:45:07;10.07;;;8.03;;
25349;SDS011;13302;48.796;11.978;2023-02-07T08:47:55;11.07;;;9.53;;
25349;SDS011;13302;48.796;11.978;2023-02-07T08:50:42;9.43;;;8.50;;
25349;SDS011;13302;48.796;11.978;2023-02-07T08:53:29;9.27;;;8.37;;
25349;SDS011;13302;48.796;11.978;2023-02-07T08:56:16;10.63;;;9.63;;
25349;SDS011;13302;48.796;11.978;2023-02-07T08:59:03;9.93;;;9.03;;
25349;SDS011;13302;48.796;11.978;2023-02-07T09:01:50;9.10;;;8.20;;
25349;SDS011;13302;48.796;11.978;2023-02-07T09:04:36;8.47;;;7.67;;
25349;SDS011;13302;48.796;11.978;2023-02-07T09:07:23;8.63;;;7.73;;
25349;SDS011;13302;48.796;11.978;2023-02-07T09:10:10;9.10;;;8.27;;
25349;SDS011;13302;48.796;11.978;2023-02-07T09:12:57;10.80;;;8.77;;
25349;SDS011;13302;48.796;11.978;2023-02-07T09:15:45;8.60;;;7.70;;
25349;SDS011;13302;48.796;11.978;2023-02-07T09:18:32;9.03;;;8.13;;
25349;SDS011;13302;48.796;11.978;2023-02-07T09:21:20;9.77;;;8.80;;
25349;SDS011;13302;48.796;11.978;2023-02-07T09:24:07;8.30;;;7.50;;
25349;SDS011;13302;48.796;11.978;2023-02-07T09:26:54;8.70;;;7.80;;
25349;SDS011;13302;48.796;11.978;2023-02-07T09:29:41;9.10;;;8.17;;
25349;SDS011;13302;48.796;11.978;2023-02-07T09:32:28;9.20;;;8.27;;
25349;SDS011;13302;48.796;11.978;2023-02-07T09:35:15;9.10;;;8.30;;
25349;SDS011;13302;48.796;11.978;2023-02-07T09:38:02;9.23;;;8.33;;
25349;SDS011;13302;48.796;11.978;2023-02-07T09:40:49;9.23;;;8.27;;
25349;SDS011;13302;48.796;11.978;2023-02-07T09:43:52;8.57;;;7.63;;
25349;SDS011;13302;48.796;11.978;2023-02-07T09:46:51;9.33;;;8.43;;
25349;SDS011;13302;48.796;11.978;2023-02-07T09:52:47;8.87;;;7.97;;
25349;SDS011;13302;48.796;11.978;2023-02-07T09:55:46;8.70;;;7.80;;
25349;SDS011;13302;48.796;11.978;2023-02-07T09:58:43;8.80;;;7.83;;
25349;SDS011;13302;48.796;11.978;2023-02-07T10:01:35;8.90;;;8.00;;
25349;SDS011;13302;48.796;11.978;2023-02-07T10:04:28;9.70;;;8.73;;
25349;SDS011;13302;48.796;11.978;2023-02-07T10:07:20;7.83;;;7.13;;
25349;SDS011;13302;48.796;11.978;2023-02-07T10:10:18;9.40;;;8.50;;
25349;SDS011;13302;48.796;11.978;2023-02-07T10:23:14;7.80;;;7.10;;
25349;SDS011;13302;48.796;11.978;2023-02-07T10:26:15;8.47;;;7.60;;
25349;SDS011;13302;48.796;11.978;2023-02-07T10:29:12;8.00;;;7.20;;
25349;SDS011;13302;48.796;11.978;2023-02-07T10:32:12;8.13;;;7.30;;
25349;SDS011;13302;48.796;11.978;2023-02-07T10:35:15;8.47;;;7.67;;
25349;SDS011;13302;48.796;11.978;2023-02-07T10:38:19;8.87;;;7.47;;
25349;SDS011;13302;48.796;11.978;2023-02-07T10:41:14;7.93;;;7.23;;
25349;SDS011;13302;48.796;11.978;2023-02-07T10:44:05;8.17;;;7.37;;
25349;SDS011;13302;48.796;11.978;2023-02-07T10:49:51;8.50;;;7.60;;
25349;SDS011;13302;48.796;11.978;2023-02-07T10:52:42;7.67;;;6.97;;
25349;SDS011;13302;48.796;11.978;2023-02-07T10:55:39;7.37;;;6.67;;
25349;SDS011;13302;48.796;11.978;2023-02-07T10:58:37;9.30;;;6.70;;
25349;SDS011;13302;48.796;11.978;2023-02-07T11:01:25;8.03;;;7.20;;
25349;SDS011;13302;48.796;11.978;2023-02-07T11:04:48;7.67;;;6.67;;
25349;SDS011;13302;48.796;11.978;2023-02-07T11:07:28;7.63;;;6.93;;
25349;SDS011;13302;48.796;11.978;2023-02-07T11:10:31;6.80;;;6.13;;
25349;SDS011;13302;48.796;11.978;2023-02-07T11:13:27;7.57;;;6.53;;
25349;SDS011;13302;48.796;11.978;2023-02-07T11:16:17;7.20;;;6.37;;
25349;SDS011;13302;48.796;11.978;2023-02-07T11:19:06;6.47;;;5.80;;
25349;SDS011;13302;48.796;11.978;2023-02-07T11:24:59;6.70;;;6.10;;
25349;SDS011;13302;48.796;11.978;2023-02-07T11:27:49;7.20;;;6.50;;
25349;SDS011;13302;48.796;11.978;2023-02-07T11:30:38;6.90;;;6.30;;
25349;SDS011;13302;48.796;11.978;2023-02-07T11:33:26;7.87;;;7.03;;
25349;SDS011;13302;48.796;11.978;2023-02-07T11:39:02;6.50;;;5.90;;
25349;SDS011;13302;48.796;11.978;2023-02-07T11:41:54;7.03;;;6.40;;
25349;SDS011;13302;48.796;11.978;2023-02-07T11:44:45;6.40;;;5.80;;
25349;SDS011;13302;48.796;11.978;2023-02-07T11:47:33;6.80;;;6.10;;
25349;SDS011;13302;48.796;11.978;2023-02-07T11:50:25;6.83;;;6.23;;
25349;SDS011;13302;48.796;11.978;2023-02-07T11:53:21;7.33;;;6.63;;
25349;SDS011;13302;48.796;11.978;2023-02-07T11:56:21;7.03;;;6.40;;
25349;SDS011;13302;48.796;11.978;2023-02-07T11:59:13;6.73;;;6.00;;
25349;SDS011;13302;48.796;11.978;2023-02-07T12:02:13;6.87;;;6.17;;
25349;SDS011;13302;48.796;11.978;2023-02-07T12:05:11;6.30;;;5.70;;
25349;SDS011;13302;48.796;11.978;2023-02-07T12:08:05;6.87;;;6.23;;
25349;SDS011;13302;48.796;11.978;2023-02-07T12:11:06;6.40;;;5.73;;
25349;SDS011;13302;48.796;11.978;2023-02-07T12:14:05;5.80;;;5.30;;
25349;SDS011;13302;48.796;11.978;2023-02-07T12:16:59;6.00;;;5.40;;
25349;SDS011;13302;48.796;11.978;2023-02-07T12:19:54;6.50;;;5.97;;
25349;SDS011;13302;48.796;11.978;2023-02-07T12:22:47;6.77;;;6.17;;
25349;SDS011;13302;48.796;11.978;2023-02-07T12:25:58;6.77;;;6.13;;
25349;SDS011;13302;48.796;11.978;2023-02-07T12:32:07;6.87;;;6.27;;
25349;SDS011;13302;48.796;11.978;2023-02-07T12:41:02;5.80;;;5.30;;
25349;SDS011;13302;48.796;11.978;2023-02-07T12:44:25;6.00;;;5.40;;
25349;SDS011;13302;48.796;11.978;2023-02-07T12:47:39;5.97;;;4.90;;
25349;SDS011;13302;48.796;11.978;2023-02-07T12:50:43;5.73;;;5.23;;
25349;SDS011;13302;48.796;11.978;2023-02-07T12:53:56;5.80;;;5.23;;
25349;SDS011;13302;48.796;11.978;2023-02-07T12:57:14;5.77;;;5.10;;
25349;SDS011;13302;48.796;11.978;2023-02-07T13:00:17;6.93;;;5.63;;
25349;SDS011;13302;48.796;11.978;2023-02-07T13:10:00;5.40;;;4.90;;
25349;SDS011;13302;48.796;11.978;2023-02-07T13:15:49;4.77;;;4.47;;
25349;SDS011;13302;48.796;11.978;2023-02-07T13:18:48;5.27;;;4.87;;
25349;SDS011;13302;48.796;11.978;2023-02-07T13:21:45;4.83;;;4.50;;
25349;SDS011;13302;48.796;11.978;2023-02-07T13:24:43;4.83;;;4.40;;
25349;SDS011;13302;48.796;11.978;2023-02-07T13:27:32;5.47;;;4.97;;
25349;SDS011;13302;48.796;11.978;2023-02-07T13:30:22;4.63;;;4.23;;
25349;SDS011;13302;48.796;11.978;2023-02-07T13:42:45;4.27;;;3.83;;
25349;SDS011;13302;48.796;11.978;2023-02-07T13:45:58;4.80;;;4.20;;
25349;SDS011;13302;48.796;11.978;2023-02-07T13:48:59;4.30;;;3.90;;
25349;SDS011;13302;48.796;11.978;2023-02-07T13:55:32;5.30;;;4.80;;
25349;SDS011;13302;48.796;11.978;2023-02-07T14:01:49;5.30;;;4.90;;
25349;SDS011;13302;48.796;11.978;2023-02-07T14:04:44;5.00;;;4.60;;
25349;SDS011;13302;48.796;11.978;2023-02-07T14:07:34;5.57;;;5.07;;
25349;SDS011;13302;48.796;11.978;2023-02-07T14:10:36;5.27;;;4.87;;
25349;SDS011;13302;48.796;11.978;2023-02-07T14:13:32;5.20;;;4.80;;
25349;SDS011;13302;48.796;11.978;2023-02-07T14:16:41;4.70;;;4.30;;
25349;SDS011;13302;48.796;11.978;2023-02-07T14:22:30;4.17;;;3.93;;
25349;SDS011;13302;48.796;11.978;2023-02-07T14:25:38;4.27;;;3.97;;
25349;SDS011;13302;48.796;11.978;2023-02-07T14:28:32;3.83;;;3.53;;
25349;SDS011;13302;48.796;11.978;2023-02-07T14:31:22;3.27;;;3.07;;
25349;SDS011;13302;48.796;11.978;2023-02-07T14:34:13;2.77;;;2.67;;
25349;SDS011;13302;48.796;11.978;2023-02-07T14:37:12;3.03;;;2.83;;
25349;SDS011;13302;48.796;11.978;2023-02-07T14:40:32;2.90;;;2.80;;
25349;SDS011;13302;48.796;11.978;2023-02-07T14:43:25;3.20;;;2.90;;
25349;SDS011;13302;48.796;11.978;2023-02-07T14:46:24;3.90;;;3.60;;
25349;SDS011;13302;48.796;11.978;2023-02-07T14:49:45;6.27;;;5.67;;
25349;SDS011;13302;48.796;11.978;2023-02-07T14:52:34;7.87;;;7.07;;
25349;SDS011;13302;48.796;11.978;2023-02-07T14:55:32;5.20;;;4.70;;
25349;SDS011;13302;48.796;11.978;2023-02-07T14:58:35;5.37;;;4.87;;
25349;SDS011;13302;48.796;11.978;2023-02-07T15:01:27;4.70;;;4.40;;
25349;SDS011;13302;48.796;11.978;2023-02-07T15:04:14;3.87;;;3.57;;
25349;SDS011;13302;48.796;11.978;2023-02-07T15:07:02;4.77;;;4.37;;
25349;SDS011;13302;48.796;11.978;2023-02-07T15:09:49;3.90;;;3.60;;
25349;SDS011;13302;48.796;11.978;2023-02-07T15:12:36;5.10;;;4.70;;
25349;SDS011;13302;48.796;11.978;2023-02-07T15:15:42;4.07;;;3.77;;
25349;SDS011;13302;48.796;11.978;2023-02-07T15:18:34;4.07;;;3.77;;
25349;SDS011;13302;48.796;11.978;2023-02-07T15:21:39;3.90;;;3.70;;
25349;SDS011;13302;48.796;11.978;2023-02-07T15:27:37;4.30;;;4.00;;
25349;SDS011;13302;48.796;11.978;2023-02-07T15:30:24;5.67;;;5.27;;
25349;SDS011;13302;48.796;11.978;2023-02-07T15:33:12;5.30;;;4.30;;
25349;SDS011;13302;48.796;11.978;2023-02-07T15:36:27;4.83;;;4.43;;
25349;SDS011;13302;48.796;11.978;2023-02-07T15:39:16;8.50;;;7.70;;
25349;SDS011;13302;48.796;11.978;2023-02-07T15:42:14;8.73;;;7.83;;
25349;SDS011;13302;48.796;11.978;2023-02-07T15:45:03;5.43;;;5.03;;
25349;SDS011;13302;48.796;11.978;2023-02-07T15:47:56;6.00;;;5.50;;
25349;SDS011;13302;48.796;11.978;2023-02-07T15:50:55;5.77;;;5.27;;
25349;SDS011;13302;48.796;11.978;2023-02-07T15:53:47;5.43;;;4.97;;
25349;SDS011;13302;48.796;11.978;2023-02-07T15:56:37;5.37;;;4.87;;
25349;SDS011;13302;48.796;11.978;2023-02-07T15:59:26;4.50;;;4.10;;
25349;SDS011;13302;48.796;11.978;2023-02-07T16:02:19;4.90;;;4.50;;
25349;SDS011;13302;48.796;11.978;2023-02-07T16:08:47;5.27;;;4.77;;
25349;SDS011;13302;48.796;11.978;2023-02-07T16:11:36;8.07;;;7.27;;
25349;SDS011;13302;48.796;11.978;2023-02-07T16:14:25;10.07;;;8.33;;
25349;SDS011;13302;48.796;11.978;2023-02-07T16:17:24;14.13;;;10.60;;
25349;SDS011;13302;48.796;11.978;2023-02-07T16:20:22;14.90;;;12.03;;
25349;SDS011;13302;48.796;11.978;2023-02-07T16:23:10;14.20;;;10.13;;
25349;SDS011;13302;48.796;11.978;2023-02-07T16:25:59;8.90;;;7.27;;
25349;SDS011;13302;48.796;11.978;2023-02-07T16:28:48;7.57;;;5.90;;
25349;SDS011;13302;48.796;11.978;2023-02-07T16:31:35;5.70;;;5.20;;
25349;SDS011;13302;48.796;11.978;2023-02-07T16:34:22;5.10;;;4.70;;
25349;SDS011;13302;48.796;11.978;2023-02-07T16:37:09;5.23;;;4.73;;
25349;SDS011;13302;48.796;11.978;2023-02-07T16:39:58;4.43;;;4.07;;
25349;SDS011;13302;48.796;11.978;2023-02-07T16:42:45;4.57;;;4.20;;
25349;SDS011;13302;48.796;11.978;2023-02-07T16:45:32;4.27;;;3.97;;
25349;SDS011;13302;48.796;11.978;2023-02-07T16:48:20;4.03;;;3.73;;
25349;SDS011;13302;48.796;11.978;2023-02-07T16:51:07;3.90;;;3.60;;
25349;SDS011;13302;48.796;11.978;2023-02-07T16:53:54;4.00;;;3.60;;
25349;SDS011;13302;48.796;11.978;2023-02-07T16:56:41;4.20;;;3.90;;
25349;SDS011;13302;48.796;11.978;2023-02-07T16:59:30;3.83;;;3.57;;
25349;SDS011;13302;48.796;11.978;2023-02-07T17:02:17;4.30;;;3.90;;
25349;SDS011;13302;48.796;11.978;2023-02-07T17:05:04;4.43;;;4.03;;
25349;SDS011;13302;48.796;11.978;2023-02-07T17:07:52;7.60;;;6.90;;
25349;SDS011;13302;48.796;11.978;2023-02-07T17:10:39;5.80;;;5.30;;
25349;SDS011;13302;48.796;11.978;2023-02-07T17:13:29;4.73;;;4.10;;
25349;SDS011;13302;48.796;11.978;2023-02-07T17:16:16;4.47;;;4.17;;
25349;SDS011;13302;48.796;11.978;2023-02-07T17:19:10;6.53;;;5.83;;
25349;SDS011;13302;48.796;11.978;2023-02-07T17:21:58;7.57;;;6.60;;
25349;SDS011;13302;48.796;11.978;2023-02-07T17:24:45;6.40;;;5.80;;
25349;SDS011;13302;48.796;11.978;2023-02-07T17:27:34;7.77;;;6.70;;
25349;SDS011;13302;48.796;11.978;2023-02-07T17:30:22;5.70;;;5.10;;
25349;SDS011;13302;48.796;11.978;2023-02-07T17:33:14;5.27;;;4.57;;
25349;SDS011;13302;48.796;11.978;2023-02-07T17:36:03;6.20;;;4.83;;
25349;SDS011;13302;48.796;11.978;2023-02-07T17:38:50;8.80;;;7.90;;
25349;SDS011;13302;48.796;11.978;2023-02-07T17:41:37;14.10;;;11.30;;
25349;SDS011;13302;48.796;11.978;2023-02-07T17:44:24;34.73;;;21.67;;
25349;SDS011;13302;48.796;11.978;2023-02-07T17:47:13;17.00;;;12.27;;
25349;SDS011;13302;48.796;11.978;2023-02-07T17:50:00;8.77;;;6.90;;
25349;SDS011;13302;48.796;11.978;2023-02-07T17:52:49;6.73;;;6.03;;
25349;SDS011;13302;48.796;11.978;2023-02-07T17:55:36;4.90;;;4.40;;
25349;SDS011;13302;48.796;11.978;2023-02-07T17:58:24;4.20;;;3.90;;
25349;SDS011;13302;48.796;11.978;2023-02-07T18:01:11;6.53;;;5.40;;
25349;SDS011;13302;48.796;11.978;2023-02-07T18:03:58;9.23;;;8.33;;
25349;SDS011;13302;48.796;11.978;2023-02-07T18:06:45;10.43;;;9.33;;
25349;SDS011;13302;48.796;11.978;2023-02-07T18:09:32;6.23;;;5.73;;
25349;SDS011;13302;48.796;11.978;2023-02-07T18:12:19;6.30;;;5.70;;
25349;SDS011;13302;48.796;11.978;2023-02-07T18:15:07;4.63;;;4.27;;
25349;SDS011;13302;48.796;11.978;2023-02-07T18:17:54;4.40;;;4.00;;
25349;SDS011;13302;48.796;11.978;2023-02-07T18:20:41;3.90;;;3.57;;
25349;SDS011;13302;48.796;11.978;2023-02-07T18:23:28;4.43;;;4.03;;
25349;SDS011;13302;48.796;11.978;2023-02-07T18:26:15;4.50;;;4.10;;
25349;SDS011;13302;48.796;11.978;2023-02-07T18:29:04;4.20;;;3.90;;
25349;SDS011;13302;48.796;11.978;2023-02-07T18:31:51;4.00;;;3.73;;